Time;durP1;ratioP1;P1;durP2;ratioP2;P2;SDS_P1;SDS_P2;PMS_P1;PMS_P2;Temp;Humidity;BMP_temperature;BMP_pressure;BME280_temperature;BME280_humidity;BME280_pressure;Samples;Min_cycle;Max_cycle;Signal;HPM_P1;HPM_P2
2022/04/06 00:02:17;;;;;;;13.82;9.95;;;;;;;7.48;100.00;98311.50;5026434;28;20053;-48
2022/04/06 00:05:01;;;;;;;12.68;9.48;;;;;;;7.44;100.00;98304.69;5026752;28;20140;-49
2022/04/06 00:07:46;;;;;;;12.57;11.23;;;;;;;7.43;100.00;98298.63;5026434;28;20049;-48
2022/04/06 00:10:31;;;;;;;11.07;9.27;;;;;;;7.48;100.00;98295.88;5026812;28;20050;-49
2022/04/06 00:13:16;;;;;;;10.43;9.25;;;;;;;7.46;100.00;98295.06;5025534;28;20103;-49
2022/04/06 00:16:01;;;;;;;11.75;9.00;;;;;;;7.49;100.00;98289.75;5026578;28;20045;-49
2022/04/06 00:18:45;;;;;;;11.52;8.50;;;;;;;7.48;100.00;98291.50;5025814;28;20108;-49
2022/04/06 00:21:30;;;;;;;11.25;9.50;;;;;;;7.36;100.00;98272.88;5026821;28;20045;-49
2022/04/06 00:24:14;;;;;;;9.93;8.43;;;;;;;7.39;100.00;98283.19;5027108;28;20045;-49
2022/04/06 00:26:59;;;;;;;9.55;8.50;;;;;;;7.46;100.00;98288.09;5026568;28;20038;-49
2022/04/06 00:29:43;;;;;;;10.60;8.63;;;;;;;7.44;100.00;98283.84;5027723;28;20045;-49
2022/04/06 00:32:27;;;;;;;9.50;7.82;;;;;;;7.52;100.00;98280.97;5031096;28;20061;-49
2022/04/06 00:35:28;;;;;;;9.05;7.72;;;;;;;7.53;100.00;98285.28;5029227;28;20046;-49
2022/04/06 00:38:12;;;;;;;11.70;8.00;;;;;;;7.40;100.00;98277.06;5029464;28;20468;-49
2022/04/06 00:40:57;;;;;;;9.95;8.20;;;;;;;7.39;100.00;98272.75;5030457;28;20041;-49
2022/04/06 00:43:41;;;;;;;10.43;7.88;;;;;;;7.44;100.00;98289.06;5029904;28;20069;-49
2022/04/06 00:46:26;;;;;;;8.35;7.03;;;;;;;7.49;100.00;98272.38;5030405;28;20045;-50
2022/04/06 00:49:13;;;;;;;8.95;7.47;;;;;;;7.50;100.00;98278.41;5029739;28;20053;-49
2022/04/06 00:52:01;;;;;;;7.93;7.13;;;;;;;7.54;100.00;98276.53;5029971;28;20057;-49
2022/04/06 00:54:47;;;;;;;8.60;7.72;;;;;;;7.54;100.00;98280.03;5029885;28;20136;-49
2022/04/06 00:57:32;;;;;;;8.27;7.47;;;;;;;7.57;100.00;98277.31;5029410;28;20045;-49
2022/04/06 01:00:17;;;;;;;7.78;6.97;;;;;;;7.54;100.00;98268.72;5028036;28;20049;-49
2022/04/06 01:03:02;;;;;;;7.40;6.47;;;;;;;7.52;100.00;98257.53;5028955;28;20045;-49
2022/04/06 01:05:46;;;;;;;7.43;6.72;;;;;;;7.70;100.00;98277.69;5029517;28;20045;-49
2022/04/06 01:08:31;;;;;;;8.52;6.43;;;;;;;7.64;100.00;98270.97;5030123;28;20049;-50
2022/04/06 01:11:15;;;;;;;8.23;7.47;;;;;;;7.75;100.00;98282.72;5030983;28;20046;-49
2022/04/06 01:14:01;;;;;;;7.40;6.70;;;;;;;7.76;100.00;98268.78;5030866;28;20415;-49
2022/04/06 01:16:57;;;;;;;8.75;7.43;;;;;;;7.64;100.00;98283.16;5030563;28;20129;-49
2022/04/06 01:19:44;;;;;;;7.55;6.85;;;;;;;7.69;100.00;98276.00;5030232;28;20041;-50
2022/04/06 01:22:28;;;;;;;7.72;6.95;;;;;;;7.72;100.00;98279.31;5028083;28;20742;-50
2022/04/06 01:25:13;;;;;;;7.55;6.65;;;;;;;7.68;100.00;98272.53;5029703;28;20061;-50
2022/04/06 01:27:57;;;;;;;9.10;7.85;;;;;;;7.77;100.00;98273.06;5030187;28;20060;-50
2022/04/06 01:30:42;;;;;;;9.05;7.90;;;;;;;7.82;100.00;98274.63;5027891;28;20738;-50
2022/04/06 01:33:26;;;;;;;8.45;7.65;;;;;;;7.81;100.00;98267.72;5029500;28;20447;-49
2022/04/06 01:36:11;;;;;;;7.88;7.15;;;;;;;7.80;100.00;98280.78;5028782;28;20053;-49
2022/04/06 01:38:55;;;;;;;8.43;7.43;;;;;;;7.87;100.00;98277.06;5029020;28;20084;-50
2022/04/06 01:41:40;;;;;;;9.77;8.52;;;;;;;7.93;100.00;98277.69;5029424;28;20037;-49
2022/04/06 01:44:24;;;;;;;8.55;7.75;;;;;;;7.89;100.00;98275.22;5029347;28;20053;-50
2022/04/06 01:47:09;;;;;;;7.97;7.05;;;;;;;7.96;100.00;98279.28;5028995;28;20057;-49
2022/04/06 01:52:56;;;;;;;7.32;6.63;;;;;;;8.01;100.00;98293.00;5029148;28;20054;-50
2022/04/06 01:55:41;;;;;;;6.97;6.28;;;;;;;7.94;100.00;98297.63;5028974;28;20095;-49
2022/04/06 01:58:25;;;;;;;6.45;5.85;;;;;;;7.99;100.00;98301.78;5029369;28;20046;-50
2022/04/06 02:01:09;;;;;;;6.57;5.95;;;;;;;7.93;100.00;98303.75;5029374;28;20045;-49
2022/04/06 02:03:54;;;;;;;7.07;6.38;;;;;;;7.97;100.00;98294.03;5028485;28;20049;-50
2022/04/06 02:06:38;;;;;;;7.65;6.95;;;;;;;7.96;100.00;98294.94;5028692;28;20111;-50
2022/04/06 02:09:22;;;;;;;7.68;7.00;;;;;;;8.11;100.00;98298.72;5029317;28;20041;-49
2022/04/06 02:12:08;;;;;;;8.43;6.88;;;;;;;8.11;100.00;98298.72;5029265;28;20037;-50
2022/04/06 02:14:53;;;;;;;7.32;6.60;;;;;;;7.97;100.00;98309.69;5028582;28;20053;-49
2022/04/06 02:17:37;;;;;;;7.88;7.07;;;;;;;8.06;100.00;98313.69;5028371;28;20044;-50
2022/04/06 02:20:22;;;;;;;7.80;7.00;;;;;;;8.01;100.00;98315.63;5027485;28;20052;-50
2022/04/06 02:23:06;;;;;;;8.75;7.40;;;;;;;8.04;100.00;98318.13;5028260;28;20050;-49
2022/04/06 02:25:51;;;;;;;7.57;6.82;;;;;;;8.10;100.00;98310.91;5028030;28;20696;-49
2022/04/06 02:28:35;;;;;;;7.25;6.50;;;;;;;8.16;100.00;98317.66;5027970;28;20046;-50
2022/04/06 02:31:20;;;;;;;7.72;6.95;;;;;;;8.23;100.00;98315.66;5027379;28;20473;-50
2022/04/06 02:34:04;;;;;;;8.93;8.13;;;;;;;8.11;100.00;98315.22;5027668;28;20464;-50
2022/04/06 02:36:49;;;;;;;9.30;8.40;;;;;;;8.15;100.00;98318.53;5027333;28;20049;-49
2022/04/06 02:39:34;;;;;;;10.02;8.82;;;;;;;8.06;100.00;98311.94;5028366;28;20042;-50
2022/04/06 02:42:19;;;;;;;10.15;8.55;;;;;;;8.16;100.00;98310.69;5027983;28;20060;-50
2022/04/06 02:45:03;;;;;;;9.90;8.95;;;;;;;8.22;100.00;98306.97;5028314;28;20471;-50
2022/04/06 02:47:47;;;;;;;12.63;10.25;;;;;;;8.25;100.00;98314.66;5027579;28;20053;-50
2022/04/06 02:50:32;;;;;;;10.40;9.30;;;;;;;8.25;100.00;98313.81;5026338;28;20486;-50
2022/04/06 02:53:17;;;;;;;9.43;8.52;;;;;;;8.23;100.00;98313.06;5027777;28;20049;-49
2022/04/06 02:56:01;;;;;;;11.38;9.77;;;;;;;8.31;100.00;98319.66;5027933;28;20049;-50
2022/04/06 02:58:45;;;;;;;11.60;10.10;;;;;;;8.32;100.00;98318.75;5027293;28;20045;-50
2022/04/06 03:01:30;;;;;;;10.65;9.55;;;;;;;8.27;100.00;98320.69;5026958;28;20132;-50
2022/04/06 03:04:14;;;;;;;11.85;10.68;;;;;;;8.25;100.00;98314.66;5027441;28;20492;-50
2022/04/06 03:06:58;;;;;;;13.60;11.18;;;;;;;8.27;100.00;98318.06;5027716;28;20059;-50
2022/04/06 03:09:43;;;;;;;11.55;10.38;;;;;;;8.29;100.00;98321.50;5028439;28;20045;-50
2022/04/06 03:12:27;;;;;;;12.20;11.00;;;;;;;8.31;100.00;98322.25;5028415;28;21040;-50
2022/04/06 03:15:12;;;;;;;13.25;11.85;;;;;;;8.33;100.00;98323.06;5027959;28;20045;-50
2022/04/06 03:17:57;;;;;;;14.57;12.65;;;;;;;8.26;100.00;98319.00;5027352;28;20461;-50
2022/04/06 03:20:41;;;;;;;12.52;11.23;;;;;;;8.27;100.00;98315.47;5027635;28;20052;-50
2022/04/06 03:23:25;;;;;;;12.07;10.85;;;;;;;8.35;100.00;98320.38;5027491;28;20054;-50
2022/04/06 03:26:10;;;;;;;12.93;11.55;;;;;;;8.31;100.00;98319.66;5028306;28;20057;-49
2022/04/06 03:28:54;;;;;;;12.20;10.88;;;;;;;8.33;100.00;98315.22;5028729;28;20037;-50
2022/04/06 03:31:39;;;;;;;13.57;12.18;;;;;;;8.28;100.00;98318.91;5028616;28;20038;-50
2022/04/06 03:34:23;;;;;;;11.82;10.63;;;;;;;8.40;100.00;98318.47;5026657;28;20049;-50
2022/04/06 03:37:07;;;;;;;11.60;10.27;;;;;;;8.39;100.00;98324.63;5029046;28;20282;-50
2022/04/06 03:39:51;;;;;;;13.38;11.25;;;;;;;8.30;100.00;98310.13;5028578;28;20054;-50
2022/04/06 03:42:36;;;;;;;11.45;10.25;;;;;;;8.39;100.00;98322.00;5028390;28;20095;-50
2022/04/06 03:45:21;;;;;;;12.73;11.30;;;;;;;8.52;100.00;98322.38;5028071;28;20483;-49
2022/04/06 03:48:06;;;;;;;11.45;10.25;;;;;;;8.48;100.00;98326.81;5029149;28;20648;-50
2022/04/06 03:50:51;;;;;;;13.10;10.18;;;;;;;8.45;100.00;98323.50;5029350;28;20038;-50
2022/04/06 03:53:35;;;;;;;14.80;11.23;;;;;;;8.38;100.00;98326.38;5027913;28;20053;-50
2022/04/06 03:56:19;;;;;;;11.98;10.05;;;;;;;8.48;100.00;98334.66;5028726;28;20083;-49
2022/04/06 03:59:04;;;;;;;11.52;10.32;;;;;;;8.44;100.00;98338.31;5028512;28;20073;-50
2022/04/06 04:01:49;;;;;;;12.13;10.77;;;;;;;8.53;100.00;98329.28;5028542;28;20049;-50
2022/04/06 04:04:33;;;;;;;11.70;10.43;;;;;;;8.55;100.00;98333.53;5029401;28;20041;-49
2022/04/06 04:07:21;;;;;;;12.98;10.63;;;;;;;8.49;100.00;98331.16;5032480;28;20054;-50
2022/04/06 04:10:08;;;;;;;11.80;10.57;;;;;;;8.45;100.00;98328.72;5032801;28;20076;-49
2022/04/06 04:12:52;;;;;;;11.90;10.80;;;;;;;8.49;100.00;98332.94;5032700;28;20092;-50
2022/04/06 04:15:37;;;;;;;12.45;9.65;;;;;;;8.51;100.00;98331.94;5030562;28;20034;-49
2022/04/06 04:18:21;;;;;;;10.88;9.77;;;;;;;8.49;100.00;98345.97;5029196;28;20038;-50
2022/04/06 04:24:09;;;;;;;9.82;8.32;;;;;;;8.40;100.00;98332.38;5028928;28;20045;-50
2022/04/06 04:26:54;;;;;;;9.40;8.45;;;;;;;8.49;100.00;98327.72;5028703;28;20065;-49
2022/04/06 04:29:38;;;;;;;8.65;7.55;;;;;;;8.39;100.00;98333.28;5029026;28;20057;-50
2022/04/06 04:32:23;;;;;;;9.30;8.05;;;;;;;8.45;100.00;98337.41;5029184;28;20042;-50
2022/04/06 04:35:08;;;;;;;8.40;7.60;;;;;;;8.51;100.00;98344.97;5028836;28;20049;-50
2022/04/06 04:37:53;;;;;;;9.07;8.18;;;;;;;8.48;100.00;98344.25;5028592;28;20048;-50
2022/04/06 04:40:37;;;;;;;8.82;8.02;;;;;;;8.37;100.00;98335.06;5028118;28;20057;-49
2022/04/06 04:43:22;;;;;;;7.55;6.85;;;;;;;8.50;100.00;98350.28;5028149;28;20080;-48
2022/04/06 04:46:07;;;;;;;8.82;8.02;;;;;;;8.50;100.00;98350.28;5028810;28;20049;-49
2022/04/06 04:48:52;;;;;;;8.10;7.38;;;;;;;8.45;100.00;98353.06;5027914;28;20053;-49
2022/04/06 04:51:36;;;;;;;7.22;6.55;;;;;;;8.40;100.00;98352.41;5026655;28;20072;-49
2022/04/06 04:54:24;;;;;;;12.05;8.63;;;;;;;8.38;100.00;98351.59;5027522;28;20075;-49
2022/04/06 04:57:09;;;;;;;18.60;11.20;;;;;;;8.36;100.00;98353.41;5027197;28;20057;-49
2022/04/06 04:59:53;;;;;;;19.05;11.05;;;;;;;8.49;100.00;98356.41;5026925;28;20048;-49
2022/04/06 05:02:38;;;;;;;16.90;10.57;;;;;;;8.45;100.00;98355.69;5028723;28;20057;-50
2022/04/06 05:05:23;;;;;;;16.83;10.88;;;;;;;8.48;100.00;98360.75;5031072;28;20057;-50
2022/04/06 05:08:08;;;;;;;12.77;9.25;;;;;;;8.44;100.00;98361.78;5029409;28;20053;-49
2022/04/06 05:10:53;;;;;;;17.95;11.90;;;;;;;8.49;100.00;98369.47;5029868;28;20057;-50
2022/04/06 05:13:38;;;;;;;14.95;11.05;;;;;;;8.51;100.00;98371.06;5029374;28;20046;-49
2022/04/06 05:16:23;;;;;;;11.02;9.90;;;;;;;8.52;100.00;98370.19;5027849;28;20751;-49
2022/04/06 05:19:07;;;;;;;11.50;10.38;;;;;;;8.53;100.00;98371.03;5029350;28;20045;-49
2022/04/06 05:21:51;;;;;;;11.43;10.23;;;;;;;8.59;100.00;98378.63;5029669;28;20049;-49
2022/04/06 05:24:35;;;;;;;11.10;9.93;;;;;;;8.63;100.00;98374.97;5030608;28;20045;-49
2022/04/06 05:27:20;;;;;;;11.80;10.70;;;;;;;8.61;100.00;98376.78;5030498;28;20054;-49
2022/04/06 05:30:05;;;;;;;17.08;13.15;;;;;;;8.60;100.00;98380.31;5030275;28;20045;-49
2022/04/06 05:32:53;;;;;;;13.20;9.90;;;;;;;8.60;100.00;98383.75;5030429;28;20054;-49
2022/04/06 05:35:38;;;;;;;13.65;10.82;;;;;;;8.61;100.00;98387.22;5028786;28;20500;-49
2022/04/06 05:38:23;;;;;;;13.75;11.52;;;;;;;8.62;100.00;98387.19;5030405;28;20068;-50
2022/04/06 05:41:07;;;;;;;12.90;11.55;;;;;;;8.65;100.00;98386.22;5027170;28;20061;-49
2022/04/06 05:43:52;;;;;;;13.02;11.23;;;;;;;8.62;100.00;98391.53;5028860;28;20053;-49
2022/04/06 05:46:36;;;;;;;15.27;12.10;;;;;;;8.62;100.00;98396.78;5030659;28;20057;-50
2022/04/06 05:49:21;;;;;;;13.00;11.70;;;;;;;8.59;100.00;98394.28;5031650;28;20041;-49
2022/04/06 05:52:05;;;;;;;12.43;10.85;;;;;;;8.75;100.00;98400.59;5031074;28;20065;-49
2022/04/06 05:54:51;;;;;;;14.77;12.60;;;;;;;8.69;100.00;98397.38;5030564;28;20050;-50
2022/04/06 05:57:35;;;;;;;15.50;12.95;;;;;;;8.80;100.00;98403.84;5030745;28;20495;-49
2022/04/06 06:00:20;;;;;;;14.20;12.40;;;;;;;8.83;100.00;98402.88;5028650;28;20065;-49
2022/04/06 06:03:04;;;;;;;14.50;13.00;;;;;;;8.72;100.00;98402.47;5027252;28;20129;-49
2022/04/06 06:05:49;;;;;;;13.82;11.65;;;;;;;8.74;100.00;98406.72;5028636;28;20045;-49
2022/04/06 06:08:33;;;;;;;13.32;11.05;;;;;;;8.77;100.00;98411.81;5029525;28;20561;-49
2022/04/06 06:11:18;;;;;;;13.90;12.40;;;;;;;8.82;100.00;98411.63;5029102;28;20053;-49
2022/04/06 06:14:03;;;;;;;14.80;11.73;;;;;;;8.88;100.00;98412.25;5029033;28;20652;-49
2022/04/06 06:16:49;;;;;;;15.30;12.30;;;;;;;8.86;100.00;98408.81;5029838;28;20064;-49
2022/04/06 06:19:33;;;;;;;14.65;11.27;;;;;;;8.89;100.00;98411.31;5029501;28;20136;-49
2022/04/06 06:22:18;;;;;;;12.65;10.60;;;;;;;8.98;100.00;98411.88;5030789;28;20749;-49
2022/04/06 06:25:02;;;;;;;11.48;10.27;;;;;;;8.96;100.00;98406.69;5028019;28;20132;-49
2022/04/06 06:27:47;;;;;;;17.02;11.95;;;;;;;8.98;100.00;98406.66;5029179;28;20041;-50
2022/04/06 06:30:31;;;;;;;19.58;12.50;;;;;;;9.05;100.00;98422.00;5029132;28;20049;-49
2022/04/06 06:33:16;;;;;;;16.02;11.38;;;;;;;9.10;100.00;98416.59;5029662;28;20076;-49
2022/04/06 06:36:01;;;;;;;11.48;10.30;;;;;;;9.16;100.00;98426.78;5029467;28;20148;-49
2022/04/06 06:38:45;;;;;;;10.75;9.65;;;;;;;9.16;100.00;98428.53;5030082;28;20040;-50
2022/04/06 06:41:29;;;;;;;9.98;8.88;;;;;;;9.27;100.00;98428.97;5030192;28;20500;-49
2022/04/06 06:44:14;;;;;;;9.88;8.98;;;;;;;9.19;100.00;98423.19;5029856;28;20060;-49
2022/04/06 06:46:58;;;;;;;9.57;8.65;;;;;;;9.24;100.00;98429.94;5030062;28;20073;-50
2022/04/06 06:49:46;;;;;;;11.63;9.30;;;;;;;9.29;100.00;98430.56;5029328;28;20401;-50
2022/04/06 06:52:34;;;;;;;8.98;7.85;;;;;;;9.33;100.00;98428.72;5028175;28;20053;-50
2022/04/06 06:55:19;;;;;;;8.98;8.07;;;;;;;9.35;100.00;98429.47;5029044;28;20053;-50
2022/04/06 06:58:04;;;;;;;9.32;8.32;;;;;;;9.35;100.00;98419.03;5025356;28;20046;-50
2022/04/06 07:00:49;;;;;;;11.00;9.13;;;;;;;9.46;100.00;98431.66;5026288;28;20061;-49
2022/04/06 07:03:33;;;;;;;11.00;9.07;;;;;;;9.47;100.00;98428.97;5025363;28;20041;-50
2022/04/06 07:06:18;;;;;;;12.55;9.98;;;;;;;9.55;100.00;98439.09;5025848;28;20049;-50
2022/04/06 07:09:02;;;;;;;10.18;8.23;;;;;;;9.67;100.00;98429.88;5024990;28;20050;-50
2022/04/06 07:11:46;;;;;;;10.15;9.15;;;;;;;9.69;100.00;98428.91;5025801;28;20754;-50
2022/04/06 07:14:32;;;;;;;8.95;8.05;;;;;;;9.85;100.00;98421.25;5025476;28;20644;-49
2022/04/06 07:17:17;;;;;;;9.48;7.75;;;;;;;10.00;100.00;98415.31;5025621;28;20072;-49
2022/04/06 07:20:01;;;;;;;7.90;7.00;;;;;;;10.19;100.00;98432.81;5025357;28;20136;-50
2022/04/06 07:22:46;;;;;;;9.80;7.43;;;;;;;10.22;100.00;98417.81;5025888;28;20058;-49
2022/04/06 07:25:31;;;;;;;7.90;6.22;;;;;;;10.36;100.00;98421.59;5025818;28;20050;-50
2022/04/06 07:28:15;;;;;;;7.43;6.35;;;;;;;10.41;100.00;98414.41;5024337;28;20037;-50
2022/04/06 07:30:59;;;;;;;6.63;5.85;;;;;;;10.54;100.00;98428.63;5026080;28;20065;-50
2022/04/06 07:33:44;;;;;;;6.97;6.32;;;;;;;10.58;100.00;98417.06;5025747;28;20057;-50
2022/04/06 07:36:29;;;;;;;8.98;6.60;;;;;;;10.72;100.00;98419.03;5025459;28;20080;-50
2022/04/06 07:39:14;;;;;;;8.13;6.20;;;;;;;11.09;100.00;98418.13;5024872;28;20065;-50
2022/04/06 07:41:58;;;;;;;29.27;21.35;;;;;;;11.19;100.00;98421.97;5025312;28;20144;-50
2022/04/06 07:44:43;;;;;;;21.80;16.55;;;;;;;11.36;100.00;98428.16;5025824;28;20064;-50
2022/04/06 07:47:31;;;;;;;24.00;20.10;;;;;;;11.43;100.00;98427.75;5025854;28;20049;-50
2022/04/06 07:50:18;;;;;;;11.45;10.30;;;;;;;11.55;100.00;98420.22;5024302;28;20050;-50
2022/04/06 07:53:02;;;;;;;8.35;6.18;;;;;;;11.53;100.00;98428.16;5025640;28;20057;-50
2022/04/06 07:55:49;;;;;;;6.75;5.38;;;;;;;11.64;100.00;98440.72;5024955;28;20045;-51
2022/04/06 07:58:34;;;;;;;5.68;5.13;;;;;;;11.76;100.00;98431.38;5024837;28;20045;-50
2022/04/06 08:01:19;;;;;;;6.20;5.60;;;;;;;11.90;100.00;98429.78;5025361;28;20049;-50
2022/04/06 08:04:04;;;;;;;7.40;6.15;;;;;;;12.07;100.00;98428.88;5024995;28;20049;-51
2022/04/06 08:06:48;;;;;;;6.75;6.03;;;;;;;12.27;100.00;98437.47;5025406;28;20076;-51
2022/04/06 08:09:33;;;;;;;7.32;5.80;;;;;;;12.36;100.00;98432.56;5024610;28;20049;-51
2022/04/06 08:12:18;;;;;;;7.10;5.65;;;;;;;12.35;100.00;98436.13;5026099;28;20049;-51
2022/04/06 08:15:07;;;;;;;6.30;5.53;;;;;;;12.44;100.00;98440.03;5025463;28;20041;-51
2022/04/06 08:17:51;;;;;;;8.13;5.60;;;;;;;12.49;100.00;98416.16;5023735;28;20103;-51
2022/04/06 08:20:36;;;;;;;6.43;4.82;;;;;;;12.72;100.00;98442.00;5026876;28;20046;-51
2022/04/06 08:23:21;;;;;;;5.53;4.88;;;;;;;12.78;100.00;98449.53;5028525;28;20049;-51
2022/04/06 08:26:05;;;;;;;5.65;5.05;;;;;;;12.82;100.00;98434.47;5027297;28;20045;-51
2022/04/06 08:28:49;;;;;;;7.30;4.20;;;;;;;13.02;100.00;98444.69;5025871;28;20698;-51
2022/04/06 08:31:34;;;;;;;4.53;4.13;;;;;;;13.46;100.00;98448.38;5025330;28;20460;-51
2022/04/06 08:34:19;;;;;;;6.05;4.50;;;;;;;13.56;100.00;98452.16;5023996;28;20072;-51
2022/04/06 08:37:03;;;;;;;8.13;5.95;;;;;;;13.45;100.00;98450.13;5024390;28;20065;-51
2022/04/06 08:39:48;;;;;;;13.30;10.95;;;;;;;13.27;100.00;98453.84;5025255;28;20053;-51
2022/04/06 08:42:33;;;;;;;5.88;5.28;;;;;;;13.36;100.00;98468.22;5024921;28;20129;-51
2022/04/06 08:45:18;;;;;;;5.32;4.82;;;;;;;13.51;100.00;98462.94;5024772;28;20057;-51
2022/04/06 08:48:08;;;;;;;10.20;7.50;;;;;;;13.33;100.00;98456.97;5024866;28;20049;-51
2022/04/06 08:50:54;;;;;;;5.53;4.78;;;;;;;13.25;100.00;98468.84;5026263;28;20045;-51
2022/04/06 08:53:40;;;;;;;5.22;4.72;;;;;;;13.23;100.00;98466.28;5027830;28;20064;-51
2022/04/06 08:56:25;;;;;;;8.65;6.70;;;;;;;13.19;100.00;98463.91;5028705;28;20045;-51
2022/04/06 08:59:10;;;;;;;5.50;4.95;;;;;;;13.30;100.00;98474.72;5027808;28;20042;-51
2022/04/06 09:01:56;;;;;;;6.50;5.80;;;;;;;13.35;100.00;98470.03;5028577;28;20049;-51
2022/04/06 09:04:40;;;;;;;8.82;6.07;;;;;;;13.42;100.00;98465.25;5027348;28;20116;-51
2022/04/06 09:07:25;;;;;;;7.32;5.63;;;;;;;13.54;100.00;98469.81;5030972;28;20049;-51
2022/04/06 09:10:10;;;;;;;8.50;5.47;;;;;;;13.58;100.00;98473.94;5031115;28;20091;-51
2022/04/06 09:13:14;;;;;;;7.80;6.30;;;;;;;13.65;100.00;98469.16;5029646;28;20107;-51
2022/04/06 09:16:01;;;;;;;6.00;5.35;;;;;;;13.71;100.00;98463.56;5029985;28;20042;-50
2022/04/06 09:18:48;;;;;;;7.40;6.35;;;;;;;13.62;100.00;98466.75;5030754;28;20052;-51
2022/04/06 09:21:38;;;;;;;8.75;6.57;;;;;;;13.74;100.00;98455.47;5030775;28;20136;-51
2022/04/06 09:24:25;;;;;;;8.23;6.75;;;;;;;14.06;100.00;98458.81;5029205;28;21165;-51
2022/04/06 09:27:09;;;;;;;11.57;7.75;;;;;;;14.41;100.00;98454.03;5030770;28;20057;-51
2022/04/06 09:29:54;;;;;;;9.25;6.78;;;;;;;14.58;100.00;98457.44;5031050;28;20046;-51
2022/04/06 09:32:41;;;;;;;6.50;5.65;;;;;;;14.79;100.00;98453.47;5030266;28;20065;-51
2022/04/06 09:35:26;;;;;;;6.05;5.40;;;;;;;14.78;100.00;98451.75;5030472;28;20049;-51
2022/04/06 09:38:12;;;;;;;6.38;5.15;;;;;;;14.65;100.00;98450.81;5030781;28;20068;-51
2022/04/06 09:41:02;;;;;;;7.07;5.68;;;;;;;14.65;100.00;98445.56;5030137;28;20053;-51
2022/04/06 09:43:48;;;;;;;6.10;4.90;;;;;;;14.57;100.00;98437.31;5029615;28;20385;-51
2022/04/06 09:49:35;;;;;;;6.00;4.50;;;;;;;14.47;100.00;98448.38;5030010;28;20064;-51
2022/04/06 09:52:20;;;;;;;8.65;4.90;;;;;;;14.38;100.00;98454.22;5030892;28;20053;-50
2022/04/06 09:55:07;;;;;;;4.60;4.13;;;;;;;14.10;100.00;98462.09;5030635;28;20065;-51
2022/04/06 09:57:55;;;;;;;5.22;4.38;;;;;;;14.01;100.00;98461.75;5029754;28;20049;-52
2022/04/06 10:00:40;;;;;;;4.38;3.72;;;;;;;13.59;100.00;98446.72;5030663;28;20052;-51
2022/04/06 10:03:25;;;;;;;5.10;3.85;;;;;;;13.58;100.00;98455.53;5029516;28;20053;-51
2022/04/06 10:06:10;;;;;;;7.65;4.07;;;;;;;13.60;100.00;98463.34;5030383;28;20080;-51
2022/04/06 10:08:55;;;;;;;6.05;4.55;;;;;;;13.44;100.00;98458.13;5029656;28;20103;-51
2022/04/06 10:11:40;;;;;;;3.03;2.38;;;;;;;13.39;100.00;98452.28;5029868;28;20699;-50
2022/04/06 10:14:26;;;;;;;3.28;2.50;;;;;;;13.31;100.00;98447.47;5029912;28;20050;-50
2022/04/06 10:17:13;;;;;;;5.85;2.78;;;;;;;13.09;100.00;98451.28;5030205;28;20056;-51
2022/04/06 10:20:12;;;;;;;3.15;2.22;;;;;;;13.08;100.00;98454.00;5028881;28;20053;-51
2022/04/06 10:23:06;;;;;;;3.17;2.25;;;;;;;12.85;100.00;98461.41;5027102;28;20056;-50
2022/04/06 10:25:50;;;;;;;5.63;3.05;;;;;;;12.81;100.00;98453.78;5030134;28;20041;-51
2022/04/06 10:28:35;;;;;;;81.47;59.40;;;;;;;12.66;100.00;98444.13;5029777;28;20511;-50
2022/04/06 10:31:24;;;;;;;58.30;49.38;;;;;;;12.38;100.00;98453.47;5028358;28;20499;-50
2022/04/06 10:34:28;;;;;;;25.90;23.25;;;;;;;12.31;100.00;98452.13;5029981;28;20114;-50
2022/04/06 10:37:15;;;;;;;9.95;8.95;;;;;;;12.38;100.00;98442.97;5029930;28;20042;-51
2022/04/06 10:40:00;;;;;;;7.63;4.50;;;;;;;12.56;100.00;98436.75;5029734;28;20084;-50
2022/04/06 10:42:46;;;;;;;6.65;4.75;;;;;;;12.80;100.00;98447.69;5029867;28;20111;-50
2022/04/06 10:45:30;;;;;;;7.72;5.68;;;;;;;13.15;100.00;98447.47;5029701;28;20683;-50
2022/04/06 10:48:18;;;;;;;9.45;6.50;;;;;;;13.27;100.00;98444.19;5029871;28;20045;-51
2022/04/06 10:51:29;;;;;;;11.40;7.40;;;;;;;13.46;100.00;98435.22;5029470;28;20053;-50
2022/04/06 10:54:14;;;;;;;13.63;8.45;;;;;;;13.49;100.00;98443.78;5029715;28;20054;-50
2022/04/06 10:57:01;;;;;;;24.73;13.55;;;;;;;13.42;100.00;98436.31;5029340;28;20144;-51
2022/04/06 11:00:12;;;;;;;8.65;6.88;;;;;;;13.41;100.00;98439.91;5027883;28;20061;-51
2022/04/06 11:03:18;;;;;;;8.85;7.95;;;;;;;13.63;100.00;98437.72;5029405;28;20132;-51
2022/04/06 11:06:03;;;;;;;14.10;12.43;;;;;;;13.76;100.00;98430.78;5028616;28;20049;-50
2022/04/06 11:12:33;;;;;;;5.63;5.05;;;;;;;13.88;100.00;98423.09;5027419;28;20439;-50
2022/04/06 11:15:18;;;;;;;5.55;4.97;;;;;;;13.93;100.00;98432.38;5027415;28;20053;-51
2022/04/06 11:18:04;;;;;;;5.13;4.53;;;;;;;13.81;100.00;98422.59;5027834;28;20530;-50
2022/04/06 11:20:59;;;;;;;8.68;5.75;;;;;;;13.61;100.00;98417.69;5028335;28;20041;-51
2022/04/06 11:23:44;;;;;;;12.48;6.00;;;;;;;13.56;100.00;98426.69;5025156;28;20045;-51
2022/04/06 11:26:28;;;;;;;12.13;7.35;;;;;;;13.42;100.00;98420.53;5026566;28;20576;-51
2022/04/06 11:29:13;;;;;;;10.07;7.28;;;;;;;13.21;100.00;98428.72;5024484;28;20049;-51
2022/04/06 11:31:57;;;;;;;11.95;5.90;;;;;;;13.13;100.00;98423.06;5024527;28;20463;-51
2022/04/06 11:34:42;;;;;;;8.13;5.82;;;;;;;13.07;100.00;98413.75;5024433;28;20065;-51
2022/04/06 11:37:26;;;;;;;8.85;6.03;;;;;;;13.06;100.00;98422.56;5024310;28;20053;-51
2022/04/06 11:40:11;;;;;;;10.98;7.13;;;;;;;12.95;100.00;98421.47;5025285;28;20076;-51
2022/04/06 11:42:58;;;;;;;11.75;6.82;;;;;;;13.03;100.00;98422.75;5024838;28;20041;-51
2022/04/06 11:45:44;;;;;;;9.48;6.80;;;;;;;13.09;100.00;98426.78;5026224;28;20046;-51
2022/04/06 11:48:40;;;;;;;10.90;7.20;;;;;;;13.29;100.00;98423.91;5026993;28;20045;-50
2022/04/06 11:51:26;;;;;;;18.13;11.68;;;;;;;13.44;100.00;98421.31;5027507;28;20076;-51
2022/04/06 11:54:11;;;;;;;24.67;16.88;;;;;;;13.63;100.00;98419.28;5026641;28;20052;-50
2022/04/06 11:56:57;;;;;;;50.03;30.38;;;;;;;13.92;100.00;98414.06;5028350;28;20037;-51
2022/04/06 11:59:52;;;;;;;97.90;56.78;;;;;;;14.05;100.00;98408.91;5027959;28;20476;-51
2022/04/06 12:02:53;;;;;;;71.05;41.88;;;;;;;14.29;100.00;98399.47;5027570;28;20041;-50
2022/04/06 12:05:46;;;;;;;22.48;14.48;;;;;;;14.32;100.00;98406.34;5028421;28;20037;-51
2022/04/06 12:08:31;;;;;;;31.08;17.98;;;;;;;14.31;100.00;98402.03;5026384;28;20042;-51
2022/04/06 12:11:19;;;;;;;15.52;11.50;;;;;;;14.33;100.00;98401.00;5027894;28;20561;-50
2022/04/06 12:14:04;;;;;;;12.27;8.60;;;;;;;14.39;100.00;98403.22;5025301;28;20416;-51
2022/04/06 12:16:50;;;;;;;7.78;5.40;;;;;;;14.35;100.00;98406.16;5026998;28;20046;-50
2022/04/06 12:19:35;;;;;;;9.00;6.13;;;;;;;14.38;100.00;98398.06;5026018;28;20042;-51
2022/04/06 12:22:25;;;;;;;8.85;5.80;;;;;;;14.57;100.00;98392.53;5025965;28;20583;-51
2022/04/06 12:25:26;;;;;;;7.18;5.95;;;;;;;14.83;100.00;98390.84;5027176;28;20053;-50
2022/04/06 12:28:24;;;;;;;5.93;5.18;;;;;;;15.05;100.00;98382.41;5029386;28;20045;-51
2022/04/06 12:31:12;;;;;;;7.00;5.47;;;;;;;15.05;100.00;98382.41;5030905;28;20057;-50
2022/04/06 12:33:57;;;;;;;6.80;5.63;;;;;;;15.11;100.00;98377.56;5031915;28;20048;-51
2022/04/06 12:36:49;;;;;;;6.43;4.90;;;;;;;15.08;100.00;98364.56;5032286;28;20392;-50
2022/04/06 12:39:33;;;;;;;5.40;4.53;;;;;;;15.19;100.00;98366.50;5031985;28;20116;-51
2022/04/06 12:42:18;;;;;;;5.55;3.72;;;;;;;15.27;100.00;98358.06;5031580;28;20053;-50
2022/04/06 12:45:06;;;;;;;4.40;3.88;;;;;;;15.18;100.00;98356.91;5031150;28;20140;-50
2022/04/06 12:47:50;;;;;;;6.93;4.32;;;;;;;15.17;100.00;98355.19;5029085;28;20049;-51
2022/04/06 12:50:37;;;;;;;4.47;3.95;;;;;;;15.13;100.00;98362.47;5031697;28;20130;-51
2022/04/06 12:53:21;;;;;;;4.93;3.72;;;;;;;14.96;100.00;98360.09;5030250;28;20046;-51
2022/04/06 12:56:11;;;;;;;5.15;4.13;;;;;;;15.02;100.00;98353.59;5030333;28;20540;-50
2022/04/06 12:59:09;;;;;;;7.30;4.50;;;;;;;15.01;100.00;98347.44;5028678;28;20099;-51
2022/04/06 13:01:54;;;;;;;5.85;5.25;;;;;;;15.23;100.00;98351.31;5028994;28;20052;-51
2022/04/06 13:04:39;;;;;;;6.80;5.30;;;;;;;15.46;100.00;98349.75;5028337;28;20045;-50